createdAt,value
2018-06-11T00:02:23.490Z,25.57
2018-06-11T00:04:51.365Z,26.17
2018-06-11T00:07:19.215Z,25.43
2018-06-11T00:09:46.842Z,23.27
2018-06-11T00:12:14.674Z,25.90
2018-06-11T00:14:42.547Z,28.00
2018-06-11T00:17:10.329Z,23.73
2018-06-11T00:19:38.164Z,24.07
2018-06-11T00:22:05.897Z,26.10
2018-06-11T00:24:33.748Z,25.73
2018-06-11T00:27:01.609Z,28.80
2018-06-11T00:29:29.355Z,26.10
2018-06-11T00:31:57.109Z,25.30
2018-06-11T00:34:24.937Z,24.80
2018-06-11T00:36:52.716Z,20.73
2018-06-11T00:39:20.399Z,23.20
2018-06-11T00:41:48.978Z,22.33
2018-06-11T00:44:16.787Z,21.27
2018-06-11T00:46:44.636Z,21.90
2018-06-11T00:49:12.415Z,24.33
2018-06-11T00:51:40.388Z,21.90
2018-06-11T00:54:08.263Z,24.10
2018-06-11T00:56:36.261Z,24.37
2018-06-11T00:59:04.241Z,23.43
2018-06-11T01:01:32.247Z,24.37
2018-06-11T01:04:00.107Z,24.07
2018-06-11T01:06:27.846Z,24.73
2018-06-11T01:08:55.614Z,23.63
2018-06-11T01:11:23.328Z,23.23
2018-06-11T01:13:51.127Z,22.30
2018-06-11T01:16:18.793Z,25.37
2018-06-11T01:18:46.584Z,26.30
2018-06-11T01:21:14.359Z,26.20
2018-06-11T01:23:42.124Z,27.50
2018-06-11T01:26:09.920Z,26.83
2018-06-11T01:28:37.644Z,26.77
2018-06-11T01:31:05.518Z,28.17
2018-06-11T01:33:33.960Z,27.70
2018-06-11T01:36:01.748Z,27.13
2018-06-11T01:38:29.499Z,24.57
2018-06-11T01:40:57.274Z,24.20
2018-06-11T01:43:25.052Z,23.50
2018-06-11T01:45:52.827Z,23.00
2018-06-11T01:48:20.657Z,21.60
2018-06-11T01:50:48.446Z,24.17
2018-06-11T01:53:16.276Z,23.73
2018-06-11T01:55:44.125Z,21.40
2018-06-11T01:58:11.931Z,21.63
2018-06-11T02:00:39.677Z,23.33
2018-06-11T02:03:07.670Z,23.33
2018-06-11T02:05:35.354Z,25.97
2018-06-11T02:08:03.175Z,25.50
2018-06-11T02:10:30.968Z,24.10
2018-06-11T02:12:58.679Z,22.87
2018-06-11T02:15:26.419Z,23.67
2018-06-11T02:17:54.141Z,24.47
2018-06-11T02:20:21.786Z,24.43
2018-06-11T02:22:49.772Z,23.57
2018-06-11T02:25:18.531Z,22.97
2018-06-11T02:27:46.364Z,23.07
2018-06-11T02:30:14.180Z,21.63
2018-06-11T02:32:41.999Z,23.60
2018-06-11T02:35:13.253Z,21.67
2018-06-11T02:37:41.002Z,22.63
2018-06-11T02:40:08.786Z,24.47
2018-06-11T02:42:37.081Z,23.47
2018-06-11T02:45:05.179Z,21.07
2018-06-11T02:47:32.973Z,19.73
2018-06-11T02:50:00.857Z,23.17
2018-06-11T02:52:28.704Z,21.03
2018-06-11T02:54:56.508Z,20.83
2018-06-11T02:57:24.435Z,21.40
2018-06-11T02:59:52.377Z,21.80
2018-06-11T03:02:20.174Z,21.50
2018-06-11T03:04:48.067Z,24.00
2018-06-11T03:07:15.969Z,22.87
2018-06-11T03:09:43.657Z,21.13
2018-06-11T03:12:11.333Z,23.37
2018-06-11T03:14:39.151Z,23.07
2018-06-11T03:17:06.904Z,23.90
2018-06-11T03:19:34.507Z,22.57
2018-06-11T03:22:02.199Z,25.60
2018-06-11T03:24:29.904Z,26.13
2018-06-11T03:26:57.727Z,23.07
2018-06-11T03:29:25.556Z,22.83
2018-06-11T03:31:53.557Z,22.73
2018-06-11T03:34:21.462Z,21.13
2018-06-11T03:36:49.412Z,21.93
2018-06-11T03:39:17.131Z,28.07
2018-06-11T03:41:45.288Z,26.87
2018-06-11T03:44:13.060Z,21.60
2018-06-11T03:46:40.701Z,21.33
2018-06-11T03:49:08.547Z,19.70
2018-06-11T03:51:36.253Z,19.13
2018-06-11T03:54:03.999Z,19.93
2018-06-11T03:56:31.836Z,22.23
2018-06-11T03:58:59.757Z,19.80
2018-06-11T04:01:27.657Z,21.93
2018-06-11T04:03:55.481Z,20.53
2018-06-11T04:06:24.201Z,17.87
2018-06-11T04:08:51.962Z,20.53
2018-06-11T04:11:19.750Z,21.23
2018-06-11T04:13:47.564Z,21.03
2018-06-11T04:16:17.960Z,18.07
2018-06-11T04:18:45.786Z,21.00
2018-06-11T04:21:13.591Z,21.57
2018-06-11T04:23:41.502Z,21.47
2018-06-11T04:26:09.449Z,18.83
2018-06-11T04:28:37.425Z,22.47
2018-06-11T04:31:05.323Z,23.00
2018-06-11T04:33:33.098Z,23.40
2018-06-11T04:36:01.042Z,21.40
2018-06-11T04:38:28.882Z,22.60
2018-06-11T04:40:56.731Z,22.50
2018-06-11T04:43:24.722Z,23.23
2018-06-11T04:45:52.534Z,71.37
2018-06-11T04:48:21.367Z,203.00
2018-06-11T04:50:49.160Z,69.13
2018-06-11T04:53:16.958Z,36.53
2018-06-11T04:55:44.857Z,35.60
2018-06-11T04:58:12.654Z,33.73
2018-06-11T05:00:40.382Z,30.67
2018-06-11T05:03:08.021Z,35.00
2018-06-11T05:05:35.879Z,28.17
2018-06-11T05:08:03.779Z,33.33
2018-06-11T05:10:31.793Z,34.03
2018-06-11T05:12:59.713Z,36.53
2018-06-11T05:15:27.460Z,37.07
2018-06-11T05:17:55.420Z,37.40
2018-06-11T05:20:23.265Z,46.23
2018-06-11T05:22:51.137Z,53.90
2018-06-11T05:25:19.039Z,53.87
2018-06-11T05:27:46.770Z,38.93
2018-06-11T05:30:14.664Z,41.90
2018-06-11T05:32:42.434Z,48.77
2018-06-11T05:35:10.269Z,44.07
2018-06-11T05:37:38.183Z,45.97
2018-06-11T05:40:06.020Z,53.33
2018-06-11T05:42:33.942Z,50.40
2018-06-11T05:45:22.370Z,52.63
2018-06-11T05:47:50.591Z,52.20
2018-06-11T05:50:18.356Z,51.30
2018-06-11T05:52:46.159Z,51.97
2018-06-11T05:55:15.539Z,57.80
2018-06-11T05:57:43.468Z,47.80
2018-06-11T06:00:11.262Z,55.20
2018-06-11T06:02:39.128Z,56.70
2018-06-11T06:05:06.924Z,56.30
2018-06-11T06:07:34.648Z,54.17
2018-06-11T06:10:02.479Z,56.43
2018-06-11T06:12:31.050Z,56.90
2018-06-11T06:14:58.891Z,56.50
2018-06-11T06:17:26.739Z,59.60
2018-06-11T06:19:54.458Z,57.80
2018-06-11T06:22:22.264Z,53.97
2018-06-11T06:24:50.291Z,48.23
2018-06-11T06:27:18.122Z,47.07
2018-06-11T06:29:45.938Z,52.13
2018-06-11T06:32:13.791Z,61.30
2018-06-11T06:34:42.450Z,59.23
2018-06-11T06:37:10.422Z,56.63
2018-06-11T06:39:38.516Z,64.30
2018-06-11T06:42:06.364Z,63.50
2018-06-11T06:44:34.224Z,59.57
2018-06-11T06:47:02.034Z,60.50
2018-06-11T06:49:29.878Z,64.80
2018-06-11T06:51:57.604Z,63.20
2018-06-11T06:54:25.354Z,63.80
2018-06-11T06:56:53.271Z,60.00
2018-06-11T06:59:20.930Z,58.83
2018-06-11T07:01:48.727Z,61.60
2018-06-11T07:04:16.677Z,62.47
2018-06-11T07:06:44.359Z,63.60
2018-06-11T07:09:12.143Z,61.23
2018-06-11T07:11:40.453Z,61.30
2018-06-11T07:14:08.156Z,58.43
2018-06-11T07:16:35.909Z,60.53
2018-06-11T07:19:03.762Z,56.97
2018-06-11T07:21:31.417Z,61.33
2018-06-11T07:23:59.275Z,61.17
2018-06-11T07:26:27.135Z,62.83
2018-06-11T07:28:55.243Z,64.47
2018-06-11T07:31:23.109Z,62.10
2018-06-11T07:33:51.337Z,60.87
2018-06-11T07:36:19.156Z,58.90
2018-06-11T07:38:46.948Z,63.57
2018-06-11T07:41:14.826Z,62.17
2018-06-11T07:43:42.913Z,65.23
2018-06-11T07:46:10.743Z,61.90
2018-06-11T07:48:38.527Z,62.63
2018-06-11T07:51:06.262Z,64.17
2018-06-11T07:53:34.001Z,60.17
2018-06-11T07:56:01.702Z,62.37
2018-06-11T07:58:29.482Z,58.97
2018-06-11T08:00:57.267Z,60.50
2018-06-11T08:03:24.982Z,60.43
2018-06-11T08:05:52.738Z,58.63
2018-06-11T08:08:20.523Z,54.23
2018-06-11T08:10:48.444Z,53.73
2018-06-11T08:13:16.351Z,56.97
2018-06-11T08:15:44.181Z,54.93
2018-06-11T08:18:12.099Z,54.53
2018-06-11T08:20:40.016Z,55.13
2018-06-11T08:23:07.879Z,56.00
2018-06-11T08:25:35.668Z,54.13
2018-06-11T08:28:03.837Z,61.17
2018-06-11T08:30:34.775Z,56.70
2018-06-11T08:33:02.604Z,53.77
2018-06-11T08:35:30.326Z,56.67
2018-06-11T08:37:58.216Z,53.57
2018-06-11T08:40:25.987Z,54.43
2018-06-11T08:42:53.930Z,51.77
2018-06-11T08:45:21.755Z,51.40
2018-06-11T08:47:49.538Z,53.23
2018-06-11T08:50:17.302Z,49.87
2018-06-11T08:52:45.122Z,51.50
2018-06-11T08:55:12.896Z,45.53
2018-06-11T08:57:40.809Z,46.33
2018-06-11T09:00:08.849Z,46.63
2018-06-11T09:02:36.627Z,47.50
2018-06-11T09:05:04.983Z,47.63
2018-06-11T09:07:32.783Z,45.93
2018-06-11T09:10:00.503Z,43.47
2018-06-11T09:12:28.413Z,39.57
2018-06-11T09:14:56.192Z,42.77
2018-06-11T09:17:24.066Z,40.30
2018-06-11T09:19:52.052Z,42.00
2018-06-11T09:22:19.858Z,40.73
2018-06-11T09:24:47.633Z,44.93
2018-06-11T09:27:15.406Z,43.23
2018-06-11T09:29:43.162Z,42.67
2018-06-11T09:32:11.071Z,42.33
2018-06-11T09:34:38.854Z,41.10
2018-06-11T09:37:06.673Z,39.63
2018-06-11T09:39:34.428Z,40.13
2018-06-11T09:42:02.206Z,42.97
2018-06-11T09:44:29.996Z,40.63
2018-06-11T09:46:57.894Z,39.40
2018-06-11T09:49:25.727Z,37.53
2018-06-11T09:51:53.332Z,37.47
2018-06-11T09:54:21.222Z,38.43
2018-06-11T09:56:49.250Z,37.30
2018-06-11T09:59:17.026Z,34.80
2018-06-11T10:01:44.854Z,36.27
2018-06-11T10:04:12.737Z,33.60
2018-06-11T10:06:40.647Z,32.17
2018-06-11T10:09:08.834Z,30.10
2018-06-11T10:11:36.675Z,30.80
2018-06-11T10:14:05.041Z,28.73
2018-06-11T10:16:32.880Z,26.67
2018-06-11T10:19:00.645Z,26.97
2018-06-11T10:21:28.352Z,28.97
2018-06-11T10:23:56.167Z,31.00
2018-06-11T10:26:23.928Z,30.63
2018-06-11T10:28:51.863Z,33.20
2018-06-11T10:31:19.782Z,29.77
2018-06-11T10:33:47.648Z,34.47
2018-06-11T10:36:15.387Z,31.77
2018-06-11T10:38:43.192Z,33.87
2018-06-11T10:41:10.976Z,33.47
2018-06-11T10:43:39.265Z,34.13
2018-06-11T10:46:07.162Z,31.93
2018-06-11T10:48:35.112Z,31.97
2018-06-11T10:51:02.858Z,32.53
2018-06-11T10:53:30.529Z,35.03
2018-06-11T10:55:59.255Z,32.97
2018-06-11T10:58:27.196Z,32.87
2018-06-11T11:00:55.082Z,33.90
2018-06-11T11:03:23.324Z,34.37
2018-06-11T11:05:51.586Z,31.93
2018-06-11T11:08:19.662Z,31.20
2018-06-11T11:10:47.515Z,34.20
2018-06-11T11:13:15.208Z,34.47
2018-06-11T11:15:42.960Z,34.23
2018-06-11T11:18:10.700Z,32.00
2018-06-11T11:20:38.731Z,32.40
2018-06-11T11:23:06.703Z,35.63
2018-06-11T11:25:34.782Z,33.67
2018-06-11T11:28:02.808Z,31.70
2018-06-11T11:30:30.960Z,31.03
2018-06-11T11:32:58.957Z,35.07
2018-06-11T11:35:26.956Z,36.87
2018-06-11T11:37:54.810Z,51.90
2018-06-11T11:40:22.745Z,35.80
2018-06-11T11:42:50.713Z,33.87
2018-06-11T11:45:18.665Z,45.93
2018-06-11T11:47:46.572Z,34.43
2018-06-11T11:50:14.406Z,34.87
2018-06-11T11:52:44.321Z,33.93
2018-06-11T11:55:12.096Z,29.83
2018-06-11T11:57:40.130Z,34.13
2018-06-11T12:00:07.944Z,29.37
2018-06-11T12:02:35.799Z,28.63
2018-06-11T12:05:03.833Z,30.73
2018-06-11T12:07:31.638Z,28.27
2018-06-11T12:09:59.480Z,29.80
2018-06-11T12:12:27.242Z,28.97
2018-06-11T12:14:55.556Z,30.30
2018-06-11T12:17:24.408Z,28.33
2018-06-11T12:19:52.179Z,31.13
2018-06-11T12:22:20.001Z,32.27
2018-06-11T12:24:47.815Z,31.40
2018-06-11T12:27:16.786Z,30.70
2018-06-11T12:29:44.741Z,31.10
2018-06-11T12:32:12.553Z,31.50
2018-06-11T12:34:41.589Z,32.77
2018-06-11T12:37:09.405Z,33.17
2018-06-11T12:39:38.370Z,32.90
2018-06-11T12:42:06.194Z,31.07
2018-06-11T12:44:34.016Z,32.23
2018-06-11T12:47:02.239Z,31.23
2018-06-11T12:49:30.263Z,32.10
2018-06-11T12:51:58.075Z,31.70
2018-06-11T12:54:25.939Z,32.03
2018-06-11T12:56:53.858Z,31.17
2018-06-11T12:59:21.817Z,30.93
2018-06-11T13:01:49.745Z,28.60
2018-06-11T13:04:17.481Z,29.50
2018-06-11T13:06:45.302Z,34.13
2018-06-11T13:09:13.221Z,33.53
2018-06-11T13:11:41.039Z,30.97
2018-06-11T13:14:08.747Z,28.37
2018-06-11T13:16:40.678Z,31.77
2018-06-11T13:19:09.607Z,31.23
2018-06-11T13:21:37.500Z,32.10
2018-06-11T13:24:05.434Z,28.43
2018-06-11T13:29:48.769Z,31.57
2018-06-11T13:32:16.517Z,29.90
2018-06-11T13:34:44.309Z,32.53
2018-06-11T13:37:12.170Z,31.63
2018-06-11T13:39:39.992Z,35.37
2018-06-11T13:42:07.696Z,30.67
2018-06-11T13:44:35.582Z,29.97
2018-06-11T13:47:03.572Z,32.10
2018-06-11T13:49:44.413Z,28.43
2018-06-11T13:52:12.334Z,30.80
2018-06-11T13:54:40.118Z,30.83
2018-06-11T13:57:09.987Z,32.17
2018-06-11T13:59:37.865Z,32.37
2018-06-11T14:02:05.714Z,31.60
2018-06-11T14:04:33.437Z,32.40
2018-06-11T14:07:01.222Z,30.30
2018-06-11T14:09:30.219Z,34.07
2018-06-11T14:11:57.857Z,35.07
2018-06-11T14:14:44.128Z,32.27
2018-06-11T14:17:12.068Z,29.70
2018-06-11T14:19:40.130Z,33.17
2018-06-11T14:22:08.012Z,31.20
2018-06-11T14:24:42.698Z,32.10
2018-06-11T14:27:17.332Z,30.60
2018-06-11T14:29:45.118Z,31.80
2018-06-11T14:32:13.276Z,30.77
2018-06-11T14:34:41.233Z,31.93
2018-06-11T14:37:09.193Z,31.50
2018-06-11T14:39:37.006Z,32.27
2018-06-11T14:42:07.034Z,33.93
2018-06-11T14:44:35.715Z,35.03
2018-06-11T14:47:03.557Z,36.17
2018-06-11T14:49:51.956Z,33.17
2018-06-11T14:52:20.504Z,32.37
2018-06-11T14:54:49.149Z,33.27
2018-06-11T14:57:17.046Z,32.67
2018-06-11T14:59:44.832Z,32.13
2018-06-11T15:02:17.751Z,33.93
2018-06-11T15:04:45.708Z,26.30
2018-06-11T15:07:14.708Z,28.60
2018-06-11T15:09:42.601Z,31.53
2018-06-11T15:12:10.486Z,33.07
2018-06-11T15:14:38.183Z,30.50
2018-06-11T15:17:06.071Z,30.40
2018-06-11T15:19:34.545Z,36.13
2018-06-11T15:22:04.641Z,31.60
2018-06-11T15:24:32.766Z,34.73
2018-06-11T15:27:00.609Z,35.70
2018-06-11T15:29:28.745Z,30.17
2018-06-11T15:31:57.486Z,37.33
2018-06-11T15:34:25.798Z,34.60
2018-06-11T15:36:53.876Z,39.43
2018-06-11T15:39:21.714Z,37.30
2018-06-11T15:41:50.687Z,37.23
2018-06-11T15:44:18.716Z,35.70
2018-06-11T15:46:46.956Z,39.37
2018-06-11T15:49:20.234Z,36.90
2018-06-11T15:51:48.149Z,38.37
2018-06-11T15:54:16.015Z,39.13
2018-06-11T15:56:43.993Z,37.27
2018-06-11T15:59:11.964Z,37.73
2018-06-11T16:01:39.726Z,38.53
2018-06-11T16:04:08.615Z,40.90
2018-06-11T16:06:36.504Z,36.97
2018-06-11T16:09:06.795Z,37.93
2018-06-11T16:11:34.620Z,38.93
2018-06-11T16:14:02.481Z,38.33
2018-06-11T16:16:30.403Z,40.33
2018-06-11T16:18:58.163Z,38.53
2018-06-11T16:21:25.994Z,38.13
2018-06-11T16:23:54.133Z,39.73
2018-06-11T16:26:22.189Z,35.53
2018-06-11T16:28:50.138Z,37.03
2018-06-11T16:31:18.052Z,31.70
2018-06-11T16:33:46.021Z,33.23
2018-06-11T16:36:13.863Z,38.97
2018-06-11T16:38:41.571Z,39.57
2018-06-11T16:41:09.426Z,40.30
2018-06-11T16:43:37.411Z,36.43
2018-06-11T16:46:05.386Z,35.47
2018-06-11T16:48:33.127Z,38.87
2018-06-11T16:51:00.951Z,38.73
2018-06-11T16:53:28.760Z,37.07
2018-06-11T16:55:56.515Z,39.47
2018-06-11T16:58:25.652Z,39.73
2018-06-11T17:00:54.197Z,37.00
2018-06-11T17:03:22.244Z,37.17
2018-06-11T17:05:50.118Z,37.13
2018-06-11T17:08:18.306Z,36.17
2018-06-11T17:10:46.339Z,40.40
2018-06-11T17:13:16.259Z,36.70
2018-06-11T17:15:50.714Z,30.73
2018-06-11T17:18:18.932Z,35.27
2018-06-11T17:20:47.470Z,32.80
2018-06-11T17:23:15.374Z,36.93
2018-06-11T17:25:49.326Z,35.23
2018-06-11T17:28:18.458Z,38.33
2018-06-11T17:30:46.573Z,36.40
2018-06-11T17:33:14.419Z,37.77
2018-06-11T17:35:43.319Z,34.00
2018-06-11T17:38:11.048Z,37.60
2018-06-11T17:40:39.061Z,37.23
2018-06-11T17:43:07.149Z,38.27
2018-06-11T17:45:35.085Z,35.87
2018-06-11T17:48:03.146Z,35.43
2018-06-11T17:50:31.035Z,34.63
2018-06-11T17:52:59.075Z,36.93
2018-06-11T17:55:27.175Z,37.13
2018-06-11T17:57:55.046Z,34.30
2018-06-11T18:00:22.938Z,35.23
2018-06-11T18:02:51.165Z,35.83
2018-06-11T18:05:19.346Z,36.83
2018-06-11T18:07:50.007Z,34.23
2018-06-11T18:10:18.141Z,34.33
2018-06-11T18:12:47.142Z,33.13
2018-06-11T18:15:15.118Z,34.53
2018-06-11T18:17:43.169Z,32.37
2018-06-11T18:20:11.122Z,31.30
2018-06-11T18:22:39.200Z,32.87
2018-06-11T18:25:07.888Z,33.83
2018-06-11T18:27:36.049Z,32.17
2018-06-11T18:30:05.260Z,32.07
2018-06-11T18:32:33.073Z,29.50
2018-06-11T18:35:00.914Z,30.10
2018-06-11T18:37:28.823Z,30.93
2018-06-11T18:39:57.292Z,28.30
2018-06-11T18:42:25.701Z,28.10
2018-06-11T18:44:53.971Z,29.10
2018-06-11T18:47:22.762Z,29.40
2018-06-11T18:49:51.496Z,28.20
2018-06-11T18:52:20.235Z,35.40
2018-06-11T18:54:48.752Z,27.20
2018-06-11T18:57:17.548Z,27.57
2018-06-11T18:59:45.665Z,27.77
2018-06-11T19:02:13.784Z,25.30
2018-06-11T19:04:42.159Z,25.97
2018-06-11T19:07:10.221Z,28.30
2018-06-11T19:09:38.278Z,27.33
2018-06-11T19:12:06.019Z,28.20
2018-06-11T19:14:33.767Z,29.80
2018-06-11T19:17:02.119Z,28.90
2018-06-11T19:19:30.023Z,29.80
2018-06-11T19:21:58.014Z,30.00
2018-06-11T19:24:26.065Z,29.33
2018-06-11T19:26:53.920Z,31.67
2018-06-11T19:29:22.255Z,31.70
2018-06-11T19:31:50.611Z,31.07
2018-06-11T19:34:18.949Z,32.77
2018-06-11T19:36:46.832Z,33.23
2018-06-11T19:39:14.643Z,33.80
2018-06-11T19:41:42.470Z,33.70
2018-06-11T19:44:10.358Z,33.77
2018-06-11T19:46:38.239Z,34.67
2018-06-11T19:49:06.090Z,32.53
2018-06-11T19:51:34.484Z,33.83
2018-06-11T19:54:02.834Z,34.10
2018-06-11T19:56:30.742Z,33.13
2018-06-11T19:58:58.536Z,35.73
2018-06-11T20:01:26.586Z,32.53
2018-06-11T20:03:54.739Z,33.07
2018-06-11T20:06:22.904Z,35.70
2018-06-11T20:08:51.256Z,31.57
2018-06-11T20:11:19.324Z,32.97
2018-06-11T20:13:47.532Z,33.17
2018-06-11T20:16:15.842Z,36.00
2018-06-11T20:18:45.652Z,36.40
2018-06-11T20:21:13.629Z,38.10
2018-06-11T20:23:41.567Z,35.97
2018-06-11T20:26:09.647Z,37.10
2018-06-11T20:28:38.239Z,36.60
2018-06-11T20:31:06.952Z,41.33
2018-06-11T20:33:35.025Z,41.93
2018-06-11T20:36:03.105Z,42.20
2018-06-11T20:38:31.272Z,39.07
2018-06-11T20:40:59.272Z,44.00
2018-06-11T20:43:37.816Z,41.67
2018-06-11T20:46:05.723Z,44.33
2018-06-11T20:48:33.568Z,45.23
2018-06-11T20:51:01.524Z,45.37
2018-06-11T20:53:29.568Z,45.00
2018-06-11T20:55:57.545Z,45.33
2018-06-11T20:58:25.501Z,45.33
2018-06-11T21:00:53.358Z,45.77
2018-06-11T21:03:21.148Z,40.80
2018-06-11T21:05:48.925Z,39.70
2018-06-11T21:08:16.851Z,39.23
2018-06-11T21:10:44.818Z,38.77
2018-06-11T21:13:12.553Z,34.20
2018-06-11T21:15:40.445Z,34.90
2018-06-11T21:18:08.276Z,35.80
2018-06-11T21:20:36.213Z,34.63
2018-06-11T21:23:04.180Z,35.47
2018-06-11T21:25:32.004Z,33.77
2018-06-11T21:27:59.835Z,35.23
2018-06-11T21:30:27.758Z,37.00
2018-06-11T21:32:55.648Z,39.10
2018-06-11T21:35:23.713Z,32.57
2018-06-11T21:37:51.649Z,33.73
2018-06-11T21:40:19.513Z,29.73
2018-06-11T21:42:47.361Z,29.23
2018-06-11T21:45:15.275Z,25.87
2018-06-11T21:47:43.169Z,23.23
2018-06-11T21:50:11.864Z,21.90
2018-06-11T21:52:39.683Z,23.77
2018-06-11T21:55:07.624Z,20.77
2018-06-11T21:57:35.451Z,23.50
2018-06-11T22:00:03.384Z,22.80
2018-06-11T22:02:31.236Z,18.77
2018-06-11T22:04:59.577Z,23.03
2018-06-11T22:07:27.491Z,18.80
2018-06-11T22:10:01.308Z,21.90
2018-06-11T22:12:31.211Z,17.73
2018-06-11T22:14:59.226Z,17.03
2018-06-11T22:17:27.845Z,18.57
2018-06-11T22:19:55.694Z,18.13
2018-06-11T22:22:24.604Z,16.30
2018-06-11T22:24:52.474Z,18.37
2018-06-11T22:27:20.202Z,17.80
2018-06-11T22:29:48.081Z,16.27
2018-06-11T22:32:17.492Z,17.30
2018-06-11T22:34:46.273Z,17.37
2018-06-11T22:37:14.113Z,16.83
2018-06-11T22:39:42.114Z,16.90
2018-06-11T22:42:10.183Z,14.70
2018-06-11T22:44:42.002Z,17.67
2018-06-11T22:47:09.921Z,16.37
2018-06-11T22:49:37.702Z,17.00
2018-06-11T22:52:13.107Z,17.20
2018-06-11T22:54:40.983Z,18.23
2018-06-11T22:57:08.836Z,18.13
2018-06-11T22:59:36.647Z,18.97
2018-06-11T23:02:04.504Z,19.30
2018-06-11T23:04:32.320Z,19.97
2018-06-11T23:07:03.265Z,19.33
2018-06-11T23:09:31.132Z,17.77
2018-06-11T23:11:58.899Z,17.00
2018-06-11T23:14:32.160Z,15.77
2018-06-11T23:16:59.993Z,15.87
2018-06-11T23:19:27.818Z,14.07
2018-06-11T23:21:55.665Z,14.47
2018-06-11T23:24:35.533Z,13.87
2018-06-11T23:27:03.494Z,14.13
2018-06-11T23:29:31.329Z,13.50
2018-06-11T23:31:59.284Z,12.00
2018-06-11T23:34:27.277Z,15.20
2018-06-11T23:36:55.123Z,14.37
2018-06-11T23:39:23.156Z,13.70
2018-06-11T23:41:51.012Z,12.63
2018-06-11T23:44:18.928Z,12.50
2018-06-11T23:46:46.796Z,12.37
2018-06-11T23:49:14.668Z,11.30
2018-06-11T23:51:42.538Z,11.90
2018-06-11T23:54:10.317Z,10.57
2018-06-11T23:56:38.139Z,11.47
2018-06-11T23:59:05.836Z,12.03
